createdAt,value
2019-03-03T00:01:53.034Z,9.33
2019-03-03T00:04:24.974Z,6.70
2019-03-03T00:06:54.679Z,10.67
2019-03-03T00:09:24.086Z,8.43
2019-03-03T00:11:57.776Z,6.93
2019-03-03T00:14:28.502Z,10.50
2019-03-03T00:16:58.949Z,8.97
2019-03-03T00:19:30.444Z,4.23
2019-03-03T00:21:59.936Z,6.70
2019-03-03T00:24:29.279Z,7.73
2019-03-03T00:26:58.789Z,7.83
2019-03-03T00:29:29.143Z,7.60
2019-03-03T00:31:59.504Z,8.40
2019-03-03T00:34:32.213Z,7.60
2019-03-03T00:37:19.133Z,6.67
2019-03-03T00:40:21.041Z,6.13
2019-03-03T00:43:15.146Z,9.13
2019-03-03T00:46:21.369Z,5.10
2019-03-03T00:49:18.357Z,8.30
2019-03-03T00:52:02.229Z,7.70
2019-03-03T00:54:44.679Z,6.70
2019-03-03T00:57:28.587Z,5.67
2019-03-03T01:00:20.177Z,11.20
2019-03-03T01:02:57.091Z,10.53
2019-03-03T01:05:37.009Z,9.43
2019-03-03T01:08:25.320Z,11.30
2019-03-03T01:11:12.297Z,7.13
2019-03-03T01:14:12.045Z,7.50
2019-03-03T01:16:59.798Z,9.57
2019-03-03T01:20:06.031Z,8.90
2019-03-03T01:22:52.879Z,7.43
2019-03-03T01:25:31.140Z,10.17
2019-03-03T01:28:01.518Z,6.97
2019-03-03T01:30:36.682Z,9.10
2019-03-03T01:33:08.287Z,5.43
2019-03-03T01:35:37.746Z,9.33
2019-03-03T01:38:09.002Z,8.63
2019-03-03T01:40:38.432Z,5.87
2019-03-03T01:43:08.212Z,7.63
2019-03-03T01:45:38.672Z,8.57
2019-03-03T01:48:10.338Z,9.50
2019-03-03T01:50:40.652Z,6.67
2019-03-03T01:53:10.903Z,9.10
2019-03-03T01:55:41.238Z,7.70
2019-03-03T01:58:10.731Z,6.97
2019-03-03T02:00:40.232Z,10.27
2019-03-03T02:03:09.771Z,10.47
2019-03-03T02:05:39.228Z,12.93
2019-03-03T02:08:09.674Z,11.17
2019-03-03T02:10:38.984Z,10.37
2019-03-03T02:13:08.204Z,12.33
2019-03-03T02:15:37.736Z,8.17
2019-03-03T02:18:07.480Z,11.00
2019-03-03T02:20:37.084Z,7.47
2019-03-03T02:23:06.621Z,14.60
2019-03-03T02:25:37.380Z,12.03
2019-03-03T02:28:09.494Z,7.57
2019-03-03T02:30:41.209Z,12.17
2019-03-03T02:33:10.932Z,14.33
2019-03-03T02:35:42.394Z,13.63
2019-03-03T02:38:12.829Z,10.83
2019-03-03T02:40:43.417Z,11.87
2019-03-03T02:43:13.017Z,9.00
2019-03-03T02:45:42.469Z,15.60
2019-03-03T02:48:11.949Z,10.03
2019-03-03T02:50:42.297Z,10.70
2019-03-03T02:53:33.351Z,10.10
2019-03-03T02:56:03.794Z,11.60
2019-03-03T02:58:37.372Z,15.90
2019-03-03T03:01:27.033Z,10.83
2019-03-03T03:03:56.624Z,12.07
2019-03-03T03:06:49.149Z,14.47
2019-03-03T03:09:27.362Z,9.20
2019-03-03T03:12:09.175Z,12.10
2019-03-03T03:15:21.177Z,15.03
2019-03-03T03:18:22.812Z,13.00
2019-03-03T03:21:16.630Z,8.63
2019-03-03T03:23:54.528Z,10.07
2019-03-03T03:26:53.517Z,14.10
2019-03-03T03:29:48.174Z,10.72
2019-03-03T03:32:52.259Z,12.20
2019-03-03T03:35:33.355Z,10.90
2019-03-03T03:38:27.646Z,9.93
2019-03-03T03:41:15.047Z,17.03
2019-03-03T03:44:02.787Z,12.17
2019-03-03T03:46:50.844Z,17.67
2019-03-03T03:49:27.271Z,11.50
2019-03-03T03:52:15.839Z,17.60
2019-03-03T03:55:01.948Z,13.40
2019-03-03T03:57:41.480Z,14.13
2019-03-03T04:00:26.443Z,17.95
2019-03-03T04:03:08.025Z,14.50
2019-03-03T04:05:52.501Z,12.77
2019-03-03T04:08:36.896Z,15.97
2019-03-03T04:11:26.676Z,11.70
2019-03-03T04:14:05.745Z,19.40
2019-03-03T04:16:40.147Z,19.70
2019-03-03T04:19:34.588Z,22.47
2019-03-03T04:22:17.661Z,14.07
2019-03-03T04:24:52.118Z,17.40
2019-03-03T04:27:43.224Z,17.17
2019-03-03T04:30:32.534Z,15.23
2019-03-03T04:33:20.700Z,16.37
2019-03-03T04:36:09.232Z,14.53
2019-03-03T04:38:48.091Z,15.27
2019-03-03T04:41:26.878Z,15.07
2019-03-03T04:44:15.383Z,13.13
2019-03-03T04:46:53.126Z,17.60
2019-03-03T04:49:42.707Z,12.73
2019-03-03T04:52:29.536Z,14.13
2019-03-03T04:55:25.758Z,18.13
2019-03-03T04:58:12.859Z,16.70
2019-03-03T05:01:14.135Z,13.83
2019-03-03T05:04:02.401Z,17.10
2019-03-03T05:06:45.905Z,18.97
2019-03-03T05:09:28.663Z,17.98
2019-03-03T05:12:39.375Z,20.10
2019-03-03T05:15:30.561Z,14.40
2019-03-03T05:18:08.876Z,19.77
2019-03-03T05:20:49.262Z,17.37
2019-03-03T05:23:18.569Z,16.33
2019-03-03T05:25:53.903Z,16.10
2019-03-03T05:28:23.327Z,18.30
2019-03-03T05:30:52.805Z,16.03
2019-03-03T05:33:22.301Z,23.00
2019-03-03T05:35:52.705Z,16.83
2019-03-03T05:38:24.220Z,18.43
2019-03-03T05:41:03.924Z,17.87
2019-03-03T05:44:07.818Z,15.73
2019-03-03T05:46:39.009Z,23.70
2019-03-03T05:49:08.528Z,17.30
2019-03-03T05:51:38.058Z,16.27
2019-03-03T05:54:07.524Z,22.07
2019-03-03T05:56:37.935Z,21.30
2019-03-03T05:59:07.361Z,19.87
2019-03-03T06:01:36.858Z,15.30
2019-03-03T06:04:06.369Z,18.83
2019-03-03T06:06:35.918Z,18.50
2019-03-03T06:09:07.247Z,21.27
2019-03-03T06:11:36.572Z,13.80
2019-03-03T06:14:06.451Z,23.38
2019-03-03T06:16:36.776Z,17.47
2019-03-03T06:19:06.292Z,19.80
2019-03-03T06:21:44.794Z,19.13
2019-03-03T06:24:14.433Z,21.77
2019-03-03T06:26:45.117Z,18.40
2019-03-03T06:29:15.437Z,18.33
2019-03-03T06:31:45.043Z,17.87
2019-03-03T06:34:16.414Z,21.57
2019-03-03T06:36:46.760Z,20.80
2019-03-03T06:39:17.105Z,19.23
2019-03-03T06:41:46.705Z,21.97
2019-03-03T06:44:17.691Z,13.07
2019-03-03T06:46:48.958Z,15.63
2019-03-03T06:49:18.498Z,21.97
2019-03-03T06:51:48.047Z,21.93
2019-03-03T06:54:18.739Z,18.13
2019-03-03T06:56:48.086Z,26.23
2019-03-03T06:59:19.356Z,19.07
2019-03-03T07:01:48.725Z,17.73
2019-03-03T07:04:18.295Z,23.00
2019-03-03T07:06:48.944Z,17.10
2019-03-03T07:09:38.963Z,21.10
2019-03-03T07:12:09.909Z,14.33
2019-03-03T07:14:39.379Z,18.87
2019-03-03T07:17:09.767Z,20.70
2019-03-03T07:19:39.308Z,20.77
2019-03-03T07:22:09.785Z,19.50
2019-03-03T07:24:39.532Z,22.97
2019-03-03T07:27:10.957Z,23.83
2019-03-03T07:29:41.209Z,20.00
2019-03-03T07:32:12.835Z,19.20
2019-03-03T07:34:43.222Z,21.87
2019-03-03T07:37:12.730Z,22.77
2019-03-03T07:39:42.212Z,28.17
2019-03-03T07:42:12.738Z,21.70
2019-03-03T07:44:41.897Z,20.50
2019-03-03T07:47:13.077Z,19.73
2019-03-03T07:49:42.572Z,25.10
2019-03-03T07:52:12.054Z,19.20
2019-03-03T07:54:42.603Z,18.27
2019-03-03T07:57:14.240Z,17.43
2019-03-03T07:59:43.580Z,15.23
2019-03-03T08:02:14.298Z,31.27
2019-03-03T08:04:43.799Z,21.13
2019-03-03T08:07:15.696Z,23.57
2019-03-03T08:09:46.032Z,16.53
2019-03-03T08:12:15.660Z,22.90
2019-03-03T08:14:45.098Z,23.27
2019-03-03T08:17:14.942Z,19.67
2019-03-03T08:19:44.826Z,20.50
2019-03-03T08:22:14.452Z,23.07
2019-03-03T08:24:44.372Z,16.67
2019-03-03T08:27:15.902Z,19.77
2019-03-03T08:29:52.311Z,16.00
2019-03-03T08:32:38.708Z,20.20
2019-03-03T08:35:10.025Z,17.90
2019-03-03T08:37:40.209Z,15.67
2019-03-03T08:40:13.025Z,17.70
2019-03-03T08:42:49.278Z,14.23
2019-03-03T08:45:40.972Z,17.50
2019-03-03T08:48:30.562Z,18.97
2019-03-03T08:51:22.059Z,19.47
2019-03-03T08:53:58.834Z,21.67
2019-03-03T08:56:48.911Z,14.60
2019-03-03T08:59:43.535Z,16.90
2019-03-03T09:02:28.120Z,21.57
2019-03-03T09:05:20.431Z,19.90
2019-03-03T09:08:11.297Z,13.10
2019-03-03T09:11:10.007Z,17.40
2019-03-03T09:13:59.697Z,18.70
2019-03-03T09:16:43.435Z,13.67
2019-03-03T09:19:35.859Z,15.73
2019-03-03T09:22:25.385Z,13.67
2019-03-03T09:25:34.419Z,11.50
2019-03-03T09:28:31.188Z,13.33
2019-03-03T09:31:32.754Z,13.10
2019-03-03T09:34:12.269Z,11.00
2019-03-03T09:37:02.863Z,17.40
2019-03-03T09:40:09.855Z,13.67
2019-03-03T09:42:57.880Z,13.97
2019-03-03T09:45:39.125Z,13.77
2019-03-03T09:48:27.151Z,12.63
2019-03-03T09:51:17.905Z,12.67
2019-03-03T09:54:11.474Z,16.40
2019-03-03T09:57:00.668Z,15.10
2019-03-03T09:59:40.088Z,15.07
2019-03-03T10:02:17.890Z,10.57
2019-03-03T10:04:53.964Z,11.60
2019-03-03T10:07:46.334Z,10.17
2019-03-03T10:10:36.114Z,14.50
2019-03-03T10:13:30.612Z,10.90
2019-03-03T10:16:08.028Z,13.57
2019-03-03T10:18:54.430Z,11.53
2019-03-03T10:21:56.432Z,13.30
2019-03-03T10:24:58.235Z,9.37
2019-03-03T10:27:49.858Z,12.87
2019-03-03T10:30:33.798Z,11.43
2019-03-03T10:33:28.206Z,11.33
2019-03-03T10:36:18.158Z,10.90
2019-03-03T10:39:14.282Z,16.40
2019-03-03T10:42:02.398Z,14.00
2019-03-03T10:44:50.877Z,9.70
2019-03-03T10:47:39.182Z,11.53
2019-03-03T10:50:29.035Z,9.83
2019-03-03T10:53:07.893Z,8.33
2019-03-03T10:55:55.602Z,13.90
2019-03-03T10:58:47.039Z,13.07
2019-03-03T11:01:32.709Z,12.43
2019-03-03T11:04:20.996Z,10.37
2019-03-03T11:07:05.533Z,10.90
2019-03-03T11:09:54.715Z,11.90
2019-03-03T11:12:37.925Z,13.80
2019-03-03T11:15:28.159Z,13.30
2019-03-03T11:18:30.861Z,14.83
2019-03-03T11:21:26.412Z,13.47
2019-03-03T11:24:14.316Z,13.17
2019-03-03T11:27:03.387Z,15.00
2019-03-03T11:30:01.641Z,10.87
2019-03-03T11:32:38.482Z,11.20
2019-03-03T11:35:30.053Z,13.57
2019-03-03T11:38:17.157Z,12.73
2019-03-03T11:41:22.774Z,15.50
2019-03-03T11:43:57.813Z,10.83
2019-03-03T11:46:44.821Z,16.73
2019-03-03T11:49:22.221Z,15.00
2019-03-03T11:52:17.792Z,18.47
2019-03-03T11:54:56.354Z,14.83
2019-03-03T11:57:34.301Z,15.63
2019-03-03T12:00:21.559Z,16.80
2019-03-03T12:03:13.969Z,16.57
2019-03-03T12:05:56.765Z,14.13
2019-03-03T12:08:34.689Z,17.90
2019-03-03T12:11:26.555Z,18.37
2019-03-03T12:14:22.264Z,20.00
2019-03-03T12:16:59.961Z,21.70
2019-03-03T12:19:48.867Z,15.90
2019-03-03T12:22:37.213Z,16.40
2019-03-03T12:25:17.308Z,18.47
2019-03-03T12:28:24.845Z,19.17
2019-03-03T12:31:16.135Z,18.13
2019-03-03T12:34:30.395Z,24.13
2019-03-03T12:37:29.518Z,21.73
2019-03-03T12:40:30.234Z,18.83
2019-03-03T12:43:23.744Z,14.90
2019-03-03T12:46:10.478Z,15.37
2019-03-03T12:49:00.362Z,22.57
2019-03-03T12:52:02.612Z,17.03
2019-03-03T12:55:01.459Z,21.83
2019-03-03T12:57:42.456Z,16.27
2019-03-03T13:00:19.573Z,16.03
2019-03-03T13:03:06.668Z,19.00
2019-03-03T13:05:50.598Z,16.83
2019-03-03T13:08:29.689Z,20.33
2019-03-03T13:11:17.242Z,18.90
2019-03-03T13:14:04.179Z,20.57
2019-03-03T13:16:42.418Z,21.87
2019-03-03T13:19:19.597Z,22.90
2019-03-03T13:22:03.670Z,17.60
2019-03-03T13:24:53.859Z,12.90
2019-03-03T13:27:38.694Z,19.57
2019-03-03T13:30:33.091Z,23.90
2019-03-03T13:33:41.062Z,19.60
2019-03-03T13:36:38.653Z,15.90
2019-03-03T13:39:38.747Z,22.70
2019-03-03T13:42:26.207Z,18.13
2019-03-03T13:44:55.679Z,22.07
2019-03-03T13:47:26.012Z,19.63
2019-03-03T13:49:55.645Z,13.80
2019-03-03T13:52:26.189Z,14.80
2019-03-03T13:54:55.905Z,23.20
2019-03-03T13:57:25.312Z,11.50
2019-03-03T13:59:54.689Z,21.67
2019-03-03T14:02:24.255Z,18.97
2019-03-03T14:04:54.745Z,18.40
2019-03-03T14:07:25.363Z,16.47
2019-03-03T14:09:54.993Z,16.70
2019-03-03T14:12:26.154Z,17.50
2019-03-03T14:14:56.725Z,12.63
2019-03-03T14:17:26.200Z,14.90
2019-03-03T14:19:58.320Z,17.30
2019-03-03T14:22:28.819Z,14.80
2019-03-03T14:24:58.371Z,15.47
2019-03-03T14:27:28.758Z,19.43
2019-03-03T14:29:58.160Z,15.33
2019-03-03T14:32:27.760Z,14.50
2019-03-03T14:34:57.340Z,14.27
2019-03-03T14:37:28.522Z,14.60
2019-03-03T14:39:57.916Z,16.63
2019-03-03T14:42:27.360Z,14.23
2019-03-03T14:44:58.982Z,21.93
2019-03-03T14:47:30.107Z,16.53
2019-03-03T14:49:59.618Z,18.87
2019-03-03T14:52:29.193Z,18.93
2019-03-03T14:54:58.558Z,16.13
2019-03-03T14:57:28.096Z,14.63
2019-03-03T14:59:57.619Z,16.93
2019-03-03T15:02:27.114Z,10.40
2019-03-03T15:04:56.622Z,13.57
2019-03-03T15:07:26.190Z,23.47
2019-03-03T15:09:55.704Z,17.17
2019-03-03T15:12:25.147Z,17.77
2019-03-03T15:14:54.688Z,20.47
2019-03-03T15:17:24.122Z,19.43
2019-03-03T15:19:53.794Z,17.97
2019-03-03T15:22:24.489Z,13.37
2019-03-03T15:24:53.949Z,13.40
2019-03-03T15:27:23.459Z,17.80
2019-03-03T15:29:52.943Z,9.97
2019-03-03T15:32:22.385Z,11.53
2019-03-03T15:34:51.990Z,13.07
2019-03-03T15:37:21.479Z,12.80
2019-03-03T15:39:50.924Z,10.73
2019-03-03T15:42:20.401Z,12.77
2019-03-03T15:44:50.059Z,11.80
2019-03-03T15:47:19.505Z,10.87
2019-03-03T15:49:48.953Z,9.43
2019-03-03T15:52:18.511Z,10.57
2019-03-03T15:54:47.973Z,11.80
2019-03-03T15:57:17.545Z,11.03
2019-03-03T15:59:49.443Z,18.10
2019-03-03T16:02:19.813Z,12.27
2019-03-03T16:04:49.339Z,17.53
2019-03-03T16:07:20.642Z,12.30
2019-03-03T16:09:51.309Z,16.67
2019-03-03T16:12:22.694Z,14.70
2019-03-03T16:14:52.222Z,13.97
2019-03-03T16:17:23.885Z,13.53
2019-03-03T16:19:55.327Z,10.20
2019-03-03T16:22:26.859Z,13.47
2019-03-03T16:24:57.472Z,11.20
2019-03-03T16:27:28.960Z,17.23
2019-03-03T16:29:59.893Z,14.67
2019-03-03T16:32:30.240Z,10.83
2019-03-03T16:35:01.804Z,15.37
2019-03-03T16:37:36.998Z,15.67
2019-03-03T16:40:07.863Z,12.73
2019-03-03T16:42:38.562Z,15.90
2019-03-03T16:45:09.832Z,13.87
2019-03-03T16:47:42.390Z,16.97
2019-03-03T16:50:14.454Z,14.80
2019-03-03T16:52:44.710Z,18.73
2019-03-03T16:55:14.490Z,10.07
2019-03-03T16:57:44.340Z,10.77
2019-03-03T17:00:16.121Z,15.47
2019-03-03T17:02:46.390Z,14.40
2019-03-03T17:05:17.600Z,14.50
2019-03-03T17:07:47.023Z,11.77
2019-03-03T17:10:16.641Z,15.67
2019-03-03T17:12:46.763Z,14.77
2019-03-03T17:15:19.550Z,13.53
2019-03-03T17:17:56.587Z,10.73
2019-03-03T17:20:26.944Z,14.33
2019-03-03T17:23:04.151Z,16.77
2019-03-03T17:25:43.502Z,15.77
2019-03-03T17:28:12.755Z,14.40
2019-03-03T17:30:42.137Z,11.73
2019-03-03T17:33:25.555Z,11.27
2019-03-03T17:36:35.806Z,14.80
2019-03-03T17:39:13.299Z,19.03
2019-03-03T17:41:42.804Z,9.63
2019-03-03T17:44:14.079Z,12.90
2019-03-03T17:46:43.499Z,13.73
2019-03-03T17:49:12.973Z,12.67
2019-03-03T17:51:42.449Z,14.07
2019-03-03T17:54:12.017Z,13.53
2019-03-03T17:56:41.471Z,12.10
2019-03-03T17:59:11.191Z,14.10
2019-03-03T18:01:40.747Z,11.53
2019-03-03T18:04:11.294Z,13.20
2019-03-03T18:06:41.565Z,11.47
2019-03-03T18:09:11.179Z,14.07
2019-03-03T18:11:40.614Z,14.67
2019-03-03T18:14:10.878Z,14.37
2019-03-03T18:16:40.435Z,11.90
2019-03-03T18:19:09.981Z,17.10
2019-03-03T18:21:40.656Z,9.70
2019-03-03T18:24:12.302Z,10.03
2019-03-03T18:26:41.732Z,14.57
2019-03-03T18:29:11.333Z,12.87
2019-03-03T18:31:40.917Z,13.13
2019-03-03T18:34:11.433Z,10.07
2019-03-03T18:36:41.001Z,14.07
2019-03-03T18:39:10.566Z,9.30
2019-03-03T18:41:40.038Z,11.70
2019-03-03T18:44:09.556Z,12.37
2019-03-03T18:47:02.350Z,14.50
2019-03-03T18:49:33.914Z,10.37
2019-03-03T18:52:03.883Z,11.60
2019-03-03T18:54:35.462Z,11.53
2019-03-03T18:57:06.554Z,12.60
2019-03-03T18:59:36.056Z,15.67
2019-03-03T19:02:06.928Z,13.60
2019-03-03T19:04:37.479Z,9.43
2019-03-03T19:07:07.061Z,13.40
2019-03-03T19:09:36.470Z,12.23
2019-03-03T19:12:07.076Z,12.13
2019-03-03T19:14:38.386Z,9.70
2019-03-03T19:17:07.848Z,9.87
2019-03-03T19:19:37.386Z,12.27
2019-03-03T19:22:06.942Z,13.17
2019-03-03T19:24:38.286Z,18.03
2019-03-03T19:27:07.583Z,8.13
2019-03-03T19:29:38.956Z,8.43
2019-03-03T19:32:08.232Z,9.77
2019-03-03T19:34:37.705Z,10.17
2019-03-03T19:37:13.065Z,13.07
2019-03-03T19:39:43.035Z,9.80
2019-03-03T19:42:12.380Z,11.37
2019-03-03T19:44:41.970Z,7.43
2019-03-03T19:47:11.473Z,7.87
2019-03-03T19:49:40.912Z,8.13
2019-03-03T19:52:10.400Z,10.00
2019-03-03T19:54:39.909Z,9.00
2019-03-03T19:57:11.687Z,10.00
2019-03-03T19:59:45.019Z,12.80
2019-03-03T20:02:14.499Z,8.87
2019-03-03T20:04:53.070Z,11.97
2019-03-03T20:07:24.851Z,11.93
2019-03-03T20:09:56.208Z,9.83
2019-03-03T20:12:25.865Z,10.73
2019-03-03T20:14:55.373Z,13.50
2019-03-03T20:17:25.129Z,7.80
2019-03-03T20:19:54.675Z,11.47
2019-03-03T20:22:25.065Z,9.00
2019-03-03T20:24:54.505Z,9.47
2019-03-03T20:27:23.748Z,9.67
2019-03-03T20:29:53.136Z,6.77
2019-03-03T20:32:22.359Z,11.00
2019-03-03T20:34:56.243Z,11.00
2019-03-03T20:37:25.729Z,13.10
2019-03-03T20:39:56.001Z,11.00
2019-03-03T20:42:25.563Z,19.63
2019-03-03T20:44:55.044Z,10.37
2019-03-03T20:47:24.637Z,8.57
2019-03-03T20:49:54.120Z,10.37
2019-03-03T20:52:23.685Z,8.37
2019-03-03T20:54:53.364Z,8.30
2019-03-03T20:57:22.978Z,9.70
2019-03-03T20:59:54.536Z,9.50
2019-03-03T21:02:23.984Z,8.07
2019-03-03T21:04:53.470Z,7.63
2019-03-03T21:07:24.268Z,6.20
2019-03-03T21:09:53.774Z,10.30
2019-03-03T21:12:24.202Z,12.80
2019-03-03T21:14:53.736Z,8.17
2019-03-03T21:17:24.441Z,8.68
2019-03-03T21:19:53.840Z,11.00
2019-03-03T21:22:23.307Z,8.37
2019-03-03T21:24:53.678Z,9.53
2019-03-03T21:27:24.108Z,10.80
2019-03-03T21:29:53.475Z,10.90
2019-03-03T21:32:23.749Z,11.53
2019-03-03T21:34:54.179Z,7.73
2019-03-03T21:37:24.037Z,8.30
2019-03-03T21:39:53.571Z,8.57
2019-03-03T21:42:26.014Z,8.23
2019-03-03T21:44:57.291Z,9.33
2019-03-03T21:47:27.075Z,11.67
2019-03-03T21:49:56.603Z,8.17
2019-03-03T21:52:26.000Z,10.17
2019-03-03T21:54:55.534Z,9.90
2019-03-03T21:57:25.008Z,8.43
2019-03-03T21:59:54.532Z,8.17
2019-03-03T22:02:24.831Z,8.77
2019-03-03T22:04:54.354Z,7.53
2019-03-03T22:07:24.724Z,9.20
2019-03-03T22:09:54.291Z,8.97
2019-03-03T22:12:23.753Z,4.67
2019-03-03T22:14:54.126Z,7.77
2019-03-03T22:17:23.935Z,5.63
2019-03-03T22:19:53.411Z,7.20
2019-03-03T22:22:23.017Z,6.37
2019-03-03T22:24:55.957Z,11.67
2019-03-03T22:27:29.984Z,7.03
2019-03-03T22:30:02.611Z,7.80
2019-03-03T22:32:34.415Z,9.37
2019-03-03T22:35:04.206Z,9.27
2019-03-03T22:37:35.023Z,9.83
2019-03-03T22:40:06.967Z,7.03
2019-03-03T22:42:37.852Z,5.77
2019-03-03T22:45:10.291Z,8.53
2019-03-03T22:47:39.861Z,6.17
2019-03-03T22:50:10.110Z,7.13
2019-03-03T22:52:39.719Z,7.40
2019-03-03T22:55:11.383Z,7.80
2019-03-03T22:57:42.022Z,5.67
2019-03-03T23:00:49.371Z,8.67
2019-03-03T23:03:26.546Z,4.90
2019-03-03T23:06:22.972Z,5.73
2019-03-03T23:09:26.698Z,5.63
2019-03-03T23:12:12.747Z,5.90
2019-03-03T23:15:22.846Z,4.47
2019-03-03T23:18:37.815Z,5.27
2019-03-03T23:21:33.422Z,5.60
2019-03-03T23:24:32.320Z,5.47
2019-03-03T23:27:01.817Z,4.50
2019-03-03T23:29:32.863Z,6.67
2019-03-03T23:32:02.522Z,5.03
2019-03-03T23:34:38.280Z,3.27
2019-03-03T23:37:20.630Z,8.63
2019-03-03T23:39:56.859Z,5.17
2019-03-03T23:42:26.649Z,7.33
2019-03-03T23:45:04.645Z,5.10
2019-03-03T23:47:35.232Z,7.27
2019-03-03T23:50:06.306Z,5.72
2019-03-03T23:52:45.509Z,4.87
2019-03-03T23:55:15.292Z,6.22
2019-03-03T23:57:47.185Z,4.17
